Time;durP1;ratioP1;P1;durP2;ratioP2;P2;SDS_P1;SDS_P2;PMS_P1;PMS_P2;Temp;Humidity;BMP_temperature;BMP_pressure;BME280_temperature;BME280_humidity;BME280_pressure;Samples;Min_cycle;Max_cycle;Signal;HPM_P1;HPM_P2
2023/10/05 00:02:24;;;;;;;11.10;3.70;;;;;;;14.09;75.72;102018.06;5035803;28;20586;-71
2023/10/05 00:04:45;;;;;;;8.00;4.20;;;;;;;14.07;75.81;102010.19;5035625;28;20200;-71
2023/10/05 00:07:28;;;;;;;3.63;3.43;;;;;;;13.98;76.45;102020.94;5035754;28;20291;-71
2023/10/05 00:09:56;;;;;;;12.70;3.30;;;;;;;14.04;76.04;102021.22;5036313;28;20513;-71
2023/10/05 00:12:23;;;;;;;9.63;4.13;;;;;;;13.99;76.45;102026.19;5035818;28;20211;-71
2023/10/05 00:17:32;;;;;;;4.33;3.93;;;;;;;13.92;77.13;102025.03;5035888;28;20180;-71
2023/10/05 00:19:58;;;;;;;8.27;3.67;;;;;;;13.85;77.27;102031.97;5035414;28;20211;-71
2023/10/05 00:22:25;;;;;;;3.97;3.20;;;;;;;13.91;77.02;102038.63;5035403;28;20212;-71
2023/10/05 00:24:51;;;;;;;8.00;3.67;;;;;;;13.97;76.52;102032.66;5035742;28;20183;-71
2023/10/05 00:27:19;;;;;;;8.50;4.87;;;;;;;13.91;77.01;102022.50;5035355;28;20274;-71
2023/10/05 00:29:53;;;;;;;8.90;4.00;;;;;;;13.86;77.39;102022.91;5034092;28;20191;-71
2023/10/05 00:32:22;;;;;;;7.07;4.43;;;;;;;13.81;77.49;102035.06;5035562;28;20218;-71
2023/10/05 00:34:56;;;;;;;4.27;4.03;;;;;;;13.85;77.21;102029.28;5035274;28;20188;-71
2023/10/05 00:37:22;;;;;;;7.07;4.50;;;;;;;13.86;77.07;102032.81;5035282;28;20184;-71
2023/10/05 00:39:49;;;;;;;6.00;4.47;;;;;;;13.90;77.03;102020.78;5035608;28;20257;-71
2023/10/05 00:42:16;;;;;;;7.60;4.07;;;;;;;13.83;77.56;102025.03;5033827;28;20235;-71
2023/10/05 00:44:43;;;;;;;13.80;4.30;;;;;;;13.77;78.01;102030.97;5035065;28;20196;-71
2023/10/05 00:47:12;;;;;;;6.70;4.17;;;;;;;13.77;77.94;102031.81;5035292;28;20188;-71
2023/10/05 00:52:15;;;;;;;6.90;4.87;;;;;;;13.82;77.84;102023.34;5035664;28;20204;-71
2023/10/05 00:54:48;;;;;;;9.30;4.70;;;;;;;13.86;77.93;102024.75;5035458;28;20263;-71
2023/10/05 00:57:18;;;;;;;5.93;4.47;;;;;;;13.84;77.79;102019.50;5035392;28;20187;-71
2023/10/05 00:59:58;;;;;;;11.10;4.10;;;;;;;13.84;77.72;102026.72;5035256;28;20250;-71
2023/10/05 01:02:25;;;;;;;11.27;3.77;;;;;;;13.80;78.14;102030.69;5034782;28;20207;-71
2023/10/05 01:04:56;;;;;;;6.97;4.10;;;;;;;13.72;78.47;102039.44;5034652;28;20211;-71
2023/10/05 01:15:06;;;;;;;17.33;5.13;;;;;;;13.69;78.40;102035.22;5034448;28;20211;-72
2023/10/05 01:17:35;;;;;;;12.23;4.43;;;;;;;13.70;78.18;102023.50;5034465;28;20192;-72
2023/10/05 01:20:22;;;;;;;7.40;4.37;;;;;;;13.65;78.41;102022.19;5034901;28;20656;-71
2023/10/05 01:22:50;;;;;;;7.00;4.00;;;;;;;13.67;78.40;102031.81;5033283;28;20577;-71
2023/10/05 01:25:16;;;;;;;10.97;4.07;;;;;;;13.65;78.48;102033.81;5033004;28;20200;-71
2023/10/05 01:27:48;;;;;;;4.20;3.97;;;;;;;13.63;78.49;102027.69;5032976;28;20192;-71
2023/10/05 01:30:17;;;;;;;7.70;3.57;;;;;;;13.59;78.74;102025.44;5034215;28;20177;-71
2023/10/05 01:32:45;;;;;;;12.60;3.83;;;;;;;13.57;78.95;102025.59;5034095;28;20586;-71
2023/10/05 01:35:13;;;;;;;10.77;3.80;;;;;;;13.50;79.03;102024.44;5032906;28;20196;-71
2023/10/05 01:37:41;;;;;;;6.77;3.80;;;;;;;13.57;78.85;102027.41;5032780;28;20614;-71
2023/10/05 01:42:48;;;;;;;4.43;4.07;;;;;;;13.52;78.94;102019.78;5032619;28;20699;-71
2023/10/05 01:45:17;;;;;;;5.07;3.57;;;;;;;13.42;79.18;102021.59;5033871;28;20198;-71
2023/10/05 01:47:45;;;;;;;4.10;3.77;;;;;;;13.47;78.99;102023.84;5033846;28;20184;-72
2023/10/05 01:50:19;;;;;;;6.60;3.43;;;;;;;13.42;79.50;102020.72;5034062;28;20192;-71
2023/10/05 01:52:51;;;;;;;7.60;3.33;;;;;;;13.51;79.03;102030.66;5033761;28;20215;-71
2023/10/05 01:55:18;;;;;;;3.90;3.47;;;;;;;13.42;79.27;102024.28;5032512;28;20266;-71
2023/10/05 01:57:45;;;;;;;3.57;3.27;;;;;;;13.44;79.51;102018.78;5033278;28;20192;-71
2023/10/05 02:00:16;;;;;;;22.47;3.97;;;;;;;13.38;79.47;102014.78;5032355;28;20218;-71
2023/10/05 02:02:43;;;;;;;4.27;3.97;;;;;;;13.36;79.22;102022.16;5033560;28;20215;-71
2023/10/05 02:05:20;;;;;;;6.40;3.93;;;;;;;13.36;79.15;102019.47;5032352;28;20549;-71
2023/10/05 02:07:49;;;;;;;4.83;3.97;;;;;;;13.34;79.57;102017.88;5033834;28;20636;-71
2023/10/05 02:10:20;;;;;;;7.23;3.43;;;;;;;13.37;79.83;102015.78;5034045;28;20601;-71
2023/10/05 02:12:49;;;;;;;4.20;3.90;;;;;;;13.33;79.51;102013.50;5032154;28;20709;-71
2023/10/05 02:15:16;;;;;;;7.43;4.03;;;;;;;13.30;79.88;102014.63;5033384;28;20192;-71
2023/10/05 02:17:46;;;;;;;10.53;4.20;;;;;;;13.26;80.00;102019.44;5032435;28;20231;-71
2023/10/05 02:22:58;;;;;;;8.83;3.53;;;;;;;13.31;79.77;102024.41;5031473;28;20659;-71
2023/10/05 02:25:35;;;;;;;4.17;3.83;;;;;;;13.42;79.57;102018.03;5033293;28;20180;-71
2023/10/05 02:28:03;;;;;;;9.73;4.93;;;;;;;13.35;79.62;102012.41;5033863;28;20230;-71
2023/10/05 02:30:31;;;;;;;8.60;3.93;;;;;;;13.28;80.01;102016.63;5031906;28;20682;-71
2023/10/05 02:32:59;;;;;;;4.63;4.07;;;;;;;13.32;80.07;102017.19;5033489;28;20196;-71
2023/10/05 02:35:33;;;;;;;4.20;3.90;;;;;;;13.27;80.10;102022.97;5033543;28;20168;-71
2023/10/05 02:38:05;;;;;;;10.93;5.00;;;;;;;13.28;79.85;102019.31;5033742;28;20172;-71
2023/10/05 02:40:35;;;;;;;7.37;3.13;;;;;;;13.18;81.00;102011.22;5031762;28;20291;-71
2023/10/05 02:43:07;;;;;;;8.90;3.63;;;;;;;13.23;80.45;102008.13;5031915;28;20184;-71
2023/10/05 02:45:37;;;;;;;9.63;3.93;;;;;;;13.27;80.49;101998.81;5031853;28;20208;-72
2023/10/05 02:48:09;;;;;;;6.37;4.23;;;;;;;13.30;80.67;102003.03;5033358;28;20539;-71
2023/10/05 02:50:40;;;;;;;7.90;3.83;;;;;;;13.29;80.29;102004.88;5031933;28;20667;-71
2023/10/05 02:53:06;;;;;;;4.43;4.07;;;;;;;13.33;80.14;102000.06;5031853;28;20270;-71
2023/10/05 02:55:36;;;;;;;12.57;4.10;;;;;;;13.32;80.11;101996.56;5031911;28;20184;-71
2023/10/05 02:58:06;;;;;;;5.50;4.10;;;;;;;13.24;80.43;101997.22;5033285;28;20579;-71
2023/10/05 03:00:33;;;;;;;4.20;4.00;;;;;;;13.18;80.47;101992.44;5031862;28;20585;-71
2023/10/05 03:03:04;;;;;;;8.53;3.53;;;;;;;13.31;80.19;101986.78;5031943;28;20550;-71
2023/10/05 03:05:35;;;;;;;10.50;3.97;;;;;;;13.30;79.88;101984.25;5032931;28;20267;-71
2023/10/05 03:08:03;;;;;;;4.93;3.30;;;;;;;13.28;80.63;101984.41;5032157;28;20710;-71
2023/10/05 03:10:30;;;;;;;3.53;3.20;;;;;;;13.26;80.74;101983.66;5032128;28;20279;-71
2023/10/05 03:12:56;;;;;;;5.20;3.07;;;;;;;13.30;80.72;101987.78;5015304;28;20617;-71
2023/10/05 03:15:27;;;;;;;3.97;3.63;;;;;;;13.26;80.68;101983.66;5031467;28;20199;-71
2023/10/05 03:17:57;;;;;;;8.60;4.23;;;;;;;13.26;80.82;101994.41;5031562;28;20187;-71
2023/10/05 03:20:25;;;;;;;6.77;4.23;;;;;;;13.26;80.82;101992.59;5031423;28;20204;-71
2023/10/05 03:22:55;;;;;;;6.77;3.63;;;;;;;13.20;81.52;101990.44;5032744;28;20180;-71
2023/10/05 03:25:23;;;;;;;4.27;3.57;;;;;;;13.18;81.55;101991.56;5032366;28;20238;-71
2023/10/05 03:27:49;;;;;;;3.60;3.40;;;;;;;13.17;81.38;101992.56;5033020;28;20602;-71
2023/10/05 03:30:17;;;;;;;4.07;3.63;;;;;;;13.16;81.31;101989.00;5031706;28;20215;-71
2023/10/05 03:32:48;;;;;;;5.47;4.00;;;;;;;13.19;81.06;101993.28;5031975;28;20242;-71
2023/10/05 03:35:22;;;;;;;8.03;4.27;;;;;;;13.22;80.54;101996.53;5036793;28;20180;-71
2023/10/05 03:37:49;;;;;;;4.83;3.53;;;;;;;13.18;80.81;101989.75;5036565;28;20190;-71
2023/10/05 03:40:27;;;;;;;5.50;4.00;;;;;;;13.18;80.64;101992.44;5034900;28;20212;-71
2023/10/05 03:42:57;;;;;;;8.33;3.43;;;;;;;13.18;81.09;101991.56;5036819;28;20530;-71
2023/10/05 03:45:28;;;;;;;4.00;3.60;;;;;;;13.10;81.21;101992.25;5035239;28;20195;-71
2023/10/05 03:47:55;;;;;;;4.53;3.80;;;;;;;13.10;81.05;101994.94;5034851;28;20648;-71
2023/10/05 03:50:21;;;;;;;4.53;4.13;;;;;;;13.10;81.10;101992.25;5034807;28;20237;-72
2023/10/05 03:52:50;;;;;;;5.97;4.00;;;;;;;13.03;81.57;101990.22;5034622;28;20216;-71
2023/10/05 03:55:18;;;;;;;10.37;3.90;;;;;;;13.03;81.40;101991.06;5034714;28;20196;-71
2023/10/05 03:57:49;;;;;;;4.10;3.27;;;;;;;12.98;81.68;101990.66;5034705;28;20188;-71
2023/10/05 04:00:23;;;;;;;4.77;4.23;;;;;;;13.04;81.85;101990.09;5034574;28;20215;-71
2023/10/05 04:02:54;;;;;;;3.87;3.57;;;;;;;12.99;81.54;101988.78;5035673;28;20212;-71
2023/10/05 04:05:22;;;;;;;4.07;3.87;;;;;;;12.98;81.78;101995.16;5034600;28;20226;-71
2023/10/05 04:07:50;;;;;;;3.80;3.60;;;;;;;12.92;81.71;101996.53;5035728;28;20196;-71
2023/10/05 04:10:45;;;;;;;7.80;3.47;;;;;;;12.92;82.07;101998.38;5035976;28;20192;-71
2023/10/05 04:13:05;;;;;;;4.67;3.93;;;;;;;12.90;82.39;101998.50;5036016;28;20188;-71
2023/10/05 04:15:31;;;;;;;10.83;3.40;;;;;;;12.91;82.28;101996.66;5035500;28;20682;-71
2023/10/05 04:17:58;;;;;;;12.33;4.00;;;;;;;12.92;82.43;102003.75;5035826;28;20196;-71
2023/10/05 04:20:30;;;;;;;6.33;3.57;;;;;;;12.95;82.44;102003.47;5035465;28;20211;-71
2023/10/05 04:22:57;;;;;;;5.53;3.63;;;;;;;12.95;82.33;102003.47;5035798;28;20188;-71
2023/10/05 04:25:23;;;;;;;5.80;3.60;;;;;;;12.96;82.19;101999.81;5035465;28;20714;-71
2023/10/05 04:27:52;;;;;;;8.80;3.60;;;;;;;12.91;82.54;102002.88;5035403;28;20183;-72
2023/10/05 04:30:21;;;;;;;6.83;3.60;;;;;;;12.99;81.97;101999.53;5035608;28;20662;-71
2023/10/05 04:32:48;;;;;;;3.77;3.07;;;;;;;12.94;81.94;102005.31;5035178;28;20219;-71
2023/10/05 04:35:27;;;;;;;4.97;3.70;;;;;;;12.96;82.29;102007.84;5035793;28;20188;-71
2023/10/05 04:37:56;;;;;;;11.63;4.43;;;;;;;12.95;82.19;102003.47;5035520;28;20195;-71
2023/10/05 04:40:24;;;;;;;7.60;3.53;;;;;;;12.92;82.14;102006.44;5035345;28;20203;-71
2023/10/05 04:42:52;;;;;;;12.53;3.10;;;;;;;12.92;82.13;102003.75;5035658;28;20667;-71
2023/10/05 04:45:20;;;;;;;3.43;3.23;;;;;;;12.88;82.29;101999.63;5034464;28;20196;-71
2023/10/05 04:47:48;;;;;;;4.50;3.50;;;;;;;12.89;82.48;101987.91;5035819;28;20200;-71
2023/10/05 04:50:15;;;;;;;11.70;3.67;;;;;;;12.96;82.05;101989.06;5034937;28;20271;-71
2023/10/05 04:52:45;;;;;;;9.83;3.57;;;;;;;12.90;82.72;101995.00;5034843;28;20204;-71
2023/10/05 04:55:18;;;;;;;3.93;3.47;;;;;;;12.93;82.68;101983.97;5034876;28;20195;-71
2023/10/05 05:08:35;;;;;;;7.83;4.10;;;;;;;12.88;82.94;101994.25;5035209;28;20640;-71
2023/10/05 05:11:03;;;;;;;8.10;4.40;;;;;;;12.89;82.91;101995.97;5034772;28;20772;-71
2023/10/05 05:13:29;;;;;;;14.17;4.60;;;;;;;12.86;82.91;101986.34;5034489;28;20254;-71
2023/10/05 05:15:57;;;;;;;10.33;4.57;;;;;;;12.86;83.28;101993.56;5034411;28;20682;-71
2023/10/05 05:18:23;;;;;;;16.83;4.27;;;;;;;12.88;82.94;101988.91;5034658;28;20219;-71
2023/10/05 05:20:53;;;;;;;9.30;3.97;;;;;;;12.86;83.03;101988.19;5034752;28;20302;-70
2023/10/05 05:23:20;;;;;;;19.27;4.53;;;;;;;12.89;82.63;101993.28;5035141;28;20180;-71
2023/10/05 05:25:51;;;;;;;22.73;4.83;;;;;;;12.83;82.97;101989.31;5034580;28;20254;-72
2023/10/05 05:28:18;;;;;;;7.67;4.20;;;;;;;12.84;83.12;101988.31;5034283;28;20176;-71
2023/10/05 05:30:44;;;;;;;12.33;4.10;;;;;;;12.75;83.19;101995.34;5034080;28;20184;-70
2023/10/05 05:33:11;;;;;;;10.07;3.97;;;;;;;12.82;83.12;101993.81;5034101;28;20184;-71
2023/10/05 05:35:39;;;;;;;15.87;5.07;;;;;;;12.91;82.89;101991.31;5034082;28;20242;-71
2023/10/05 05:38:09;;;;;;;8.93;4.27;;;;;;;12.85;83.34;101991.84;5034555;28;20194;-71
2023/10/05 05:40:37;;;;;;;6.93;4.00;;;;;;;12.87;82.89;101987.19;5033863;28;20207;-71
2023/10/05 05:43:08;;;;;;;11.60;3.83;;;;;;;12.95;82.62;101984.66;5033898;28;20274;-71
2023/10/05 05:45:36;;;;;;;9.17;4.43;;;;;;;12.95;82.45;101982.00;5034141;28;20179;-71
2023/10/05 05:48:09;;;;;;;15.70;4.20;;;;;;;12.91;83.04;101986.78;5034120;28;20242;-71
2023/10/05 05:50:39;;;;;;;14.50;4.93;;;;;;;12.90;82.91;101993.13;5033984;28;20175;-71
2023/10/05 05:53:07;;;;;;;12.27;4.67;;;;;;;12.88;82.78;101988.91;5034298;28;20554;-71
2023/10/05 05:55:34;;;;;;;11.23;4.03;;;;;;;12.77;83.78;101993.38;5033610;28;20187;-71
2023/10/05 05:58:00;;;;;;;5.93;4.30;;;;;;;12.93;83.17;101995.56;5032915;28;20191;-71
2023/10/05 06:00:28;;;;;;;5.10;4.27;;;;;;;12.94;82.80;102002.63;5033693;28;20230;-70
2023/10/05 06:02:55;;;;;;;9.90;4.00;;;;;;;12.91;83.53;102013.63;5033617;28;20190;-71
2023/10/05 06:05:24;;;;;;;10.93;3.63;;;;;;;12.94;82.89;102017.91;5033843;28;20184;-71
2023/10/05 06:07:50;;;;;;;14.97;3.93;;;;;;;12.96;83.13;102015.91;5033504;28;20192;-71
2023/10/05 06:10:17;;;;;;;17.47;5.17;;;;;;;13.00;83.18;102033.44;5033534;28;20222;-71
2023/10/05 06:12:51;;;;;;;4.53;4.27;;;;;;;13.02;83.07;102031.50;5033436;28;20222;-71
2023/10/05 06:15:17;;;;;;;11.20;5.03;;;;;;;12.95;83.39;102031.16;5033419;28;20202;-71
2023/10/05 06:17:44;;;;;;;8.30;4.90;;;;;;;12.89;83.53;102036.22;5033632;28;20184;-71
2023/10/05 06:20:14;;;;;;;13.17;4.17;;;;;;;12.90;83.69;102035.25;5033350;28;20215;-71
2023/10/05 06:22:44;;;;;;;11.60;4.53;;;;;;;13.02;83.18;102039.53;5033302;28;20222;-71
2023/10/05 06:25:15;;;;;;;22.97;5.03;;;;;;;13.02;83.53;102043.06;5033574;28;20541;-71
2023/10/05 06:27:44;;;;;;;12.43;4.70;;;;;;;12.99;83.61;102040.63;5033614;28;20263;-71
2023/10/05 06:30:11;;;;;;;11.03;4.13;;;;;;;13.10;83.52;102045.09;5033286;28;20192;-71
2023/10/05 06:32:38;;;;;;;12.53;4.10;;;;;;;13.14;83.22;102050.06;5033096;28;20212;-71
2023/10/05 06:35:08;;;;;;;7.20;3.80;;;;;;;13.08;83.25;102050.56;5033182;28;20226;-71
2023/10/05 06:37:41;;;;;;;11.73;4.77;;;;;;;13.17;83.01;102049.78;5033718;28;20199;-71
2023/10/05 06:40:12;;;;;;;10.43;4.53;;;;;;;13.22;82.83;102052.94;5033338;28;20668;-71
2023/10/05 06:42:43;;;;;;;11.00;4.30;;;;;;;13.16;83.14;102057.97;5033325;28;20660;-71
2023/10/05 06:45:13;;;;;;;9.60;4.47;;;;;;;13.13;83.18;102051.06;5033272;28;20195;-71
2023/10/05 06:47:40;;;;;;;23.57;5.50;;;;;;;13.21;82.85;102056.59;5033607;28;20613;-71
2023/10/05 06:50:10;;;;;;;9.97;4.13;;;;;;;13.23;82.86;102059.16;5033321;28;20360;-71
2023/10/05 06:52:43;;;;;;;11.03;4.57;;;;;;;13.26;82.79;102059.72;5033254;28;20222;-71
2023/10/05 06:55:14;;;;;;;6.27;3.80;;;;;;;13.20;82.98;102060.25;5032971;28;20196;-71
2023/10/05 06:57:44;;;;;;;16.90;4.40;;;;;;;13.21;82.78;102061.97;5032978;28;20184;-71
2023/10/05 07:00:16;;;;;;;12.40;4.73;;;;;;;13.30;82.32;102060.28;5032955;28;20246;-71
2023/10/05 07:02:44;;;;;;;8.33;4.30;;;;;;;13.40;82.29;102061.19;5032851;28;20711;-71
2023/10/05 07:05:12;;;;;;;13.80;4.50;;;;;;;13.32;82.37;102069.09;5032920;28;20199;-71
2023/10/05 07:07:40;;;;;;;8.47;4.23;;;;;;;13.33;82.55;102061.84;5033397;28;20199;-71
2023/10/05 07:10:14;;;;;;;9.97;4.20;;;;;;;13.36;82.49;102067.81;5037160;28;20261;-71
2023/10/05 07:12:42;;;;;;;12.37;4.87;;;;;;;13.36;82.24;102062.44;5037057;28;20628;-71
2023/10/05 07:15:09;;;;;;;4.23;3.93;;;;;;;13.35;82.40;102062.56;5036553;28;20191;-71
2023/10/05 07:17:35;;;;;;;4.60;4.30;;;;;;;13.37;82.30;102069.50;5036706;28;20188;-71
2023/10/05 07:20:03;;;;;;;8.87;4.80;;;;;;;13.41;82.40;102076.28;5035671;28;20675;-71
2023/10/05 07:22:30;;;;;;;10.80;4.10;;;;;;;13.44;81.98;102078.72;5036575;28;20212;-71
2023/10/05 07:24:57;;;;;;;5.97;4.93;;;;;;;13.51;81.39;102081.69;5036566;28;20557;-71
2023/10/05 07:27:23;;;;;;;8.03;4.40;;;;;;;13.50;81.38;102082.69;5037055;28;20210;-71
2023/10/05 07:29:50;;;;;;;7.00;3.80;;;;;;;13.55;81.65;102085.81;5037228;28;20192;-71
2023/10/05 07:32:16;;;;;;;5.77;4.30;;;;;;;13.59;81.49;102076.47;5036620;28;20568;-71
2023/10/05 07:34:43;;;;;;;12.83;4.63;;;;;;;13.61;81.70;102083.44;5036373;28;20192;-71
2023/10/05 07:37:10;;;;;;;7.90;4.50;;;;;;;13.63;81.96;102083.28;5036498;28;20199;-71
2023/10/05 07:39:41;;;;;;;7.40;4.53;;;;;;;13.51;82.63;102093.31;5036281;28;20199;-71
2023/10/05 07:42:08;;;;;;;10.33;4.07;;;;;;;13.53;82.16;102094.03;5036334;28;20730;-71
2023/10/05 07:44:39;;;;;;;15.33;5.40;;;;;;;13.58;82.00;102093.59;5036105;28;20199;-71
2023/10/05 07:47:06;;;;;;;9.10;4.50;;;;;;;13.66;82.36;102099.16;5036437;28;20263;-71
2023/10/05 07:49:36;;;;;;;6.73;4.43;;;;;;;13.71;81.42;102099.56;5036657;28;20184;-71
2023/10/05 07:52:09;;;;;;;9.03;4.67;;;;;;;13.72;81.96;102106.66;5036161;28;20691;-70
2023/10/05 07:54:38;;;;;;;8.10;4.10;;;;;;;13.78;82.03;102108.78;5036354;28;20179;-71
2023/10/05 07:57:10;;;;;;;7.80;4.70;;;;;;;13.81;81.78;102113.03;5036216;28;20195;-71
2023/10/05 07:59:40;;;;;;;13.50;4.27;;;;;;;13.80;81.72;102122.06;5035944;28;20222;-71
2023/10/05 08:02:08;;;;;;;18.70;4.17;;;;;;;13.86;81.36;102116.16;5036109;28;20644;-71
2023/10/05 08:04:35;;;;;;;11.40;3.90;;;;;;;13.87;81.07;102120.56;5036152;28;20184;-71
2023/10/05 08:07:03;;;;;;;6.93;4.47;;;;;;;13.81;81.46;102121.94;5035835;28;20656;-71
2023/10/05 08:09:30;;;;;;;5.27;4.10;;;;;;;13.81;81.37;102119.25;5035779;28;20188;-71
2023/10/05 08:11:57;;;;;;;7.73;4.03;;;;;;;13.84;81.37;102124.34;5035659;28;20207;-71
2023/10/05 08:14:24;;;;;;;6.73;4.10;;;;;;;13.98;81.34;102125.78;5035660;28;20658;-71
2023/10/05 08:16:51;;;;;;;5.30;4.50;;;;;;;14.01;80.89;102125.50;5035880;28;20184;-71
2023/10/05 08:19:19;;;;;;;4.90;4.40;;;;;;;14.01;81.30;102134.41;5034791;28;20206;-71
2023/10/05 08:21:46;;;;;;;6.53;3.87;;;;;;;14.00;80.34;102135.41;5035377;28;20631;-71
2023/10/05 08:24:13;;;;;;;5.33;4.90;;;;;;;14.04;81.03;102138.69;5035358;28;20249;-71
2023/10/05 08:26:41;;;;;;;15.23;4.60;;;;;;;14.02;81.24;102143.34;5035448;28;20188;-71
2023/10/05 08:29:09;;;;;;;8.47;4.57;;;;;;;14.12;80.24;102141.53;5035337;28;20667;-71
2023/10/05 08:31:36;;;;;;;13.33;4.37;;;;;;;14.12;80.63;102144.22;5035812;28;20283;-70
2023/10/05 08:34:03;;;;;;;6.77;4.17;;;;;;;14.34;80.73;102149.31;5035292;28;20215;-71
2023/10/05 08:36:36;;;;;;;14.03;4.83;;;;;;;14.32;79.94;102151.31;5033878;28;20203;-71
2023/10/05 08:39:03;;;;;;;11.90;4.50;;;;;;;14.28;80.27;102151.72;5035495;28;20195;-71
2023/10/05 08:41:32;;;;;;;15.67;4.60;;;;;;;14.42;79.67;102160.28;5035154;28;20216;-71
2023/10/05 08:44:00;;;;;;;9.37;5.00;;;;;;;14.47;79.86;102157.16;5035645;28;20188;-71
2023/10/05 08:46:27;;;;;;;8.93;4.27;;;;;;;14.56;80.08;102158.97;5035093;28;20678;-71
2023/10/05 08:48:55;;;;;;;17.73;4.43;;;;;;;14.56;80.00;102148.19;5035024;28;20242;-71
2023/10/05 08:51:24;;;;;;;6.37;4.20;;;;;;;14.71;79.12;102151.31;5035243;28;20616;-71
2023/10/05 08:53:55;;;;;;;4.13;3.87;;;;;;;14.63;78.68;102152.91;5034999;28;20194;-71
2023/10/05 08:56:22;;;;;;;11.23;4.40;;;;;;;14.66;79.55;102149.06;5035155;28;20226;-71
2023/10/05 08:58:49;;;;;;;10.83;4.67;;;;;;;14.71;79.54;102146.78;5035033;28;20284;-71
2023/10/05 09:01:26;;;;;;;7.80;4.60;;;;;;;14.72;78.22;102155.72;5034573;28;20219;-71
2023/10/05 09:03:53;;;;;;;8.00;4.10;;;;;;;14.67;77.93;102149.91;5034526;28;20605;-71
2023/10/05 09:06:20;;;;;;;4.57;4.17;;;;;;;14.71;78.15;102156.69;5035170;28;20196;-71
2023/10/05 09:08:52;;;;;;;10.20;4.30;;;;;;;14.65;79.09;102158.13;5034645;28;20601;-71
2023/10/05 09:11:31;;;;;;;8.27;4.53;;;;;;;14.67;78.52;102160.69;5034863;28;20195;-71
2023/10/05 09:14:23;;;;;;;4.10;3.57;;;;;;;14.70;78.66;102161.22;5034388;28;20200;-71
2023/10/05 09:16:58;;;;;;;13.80;5.83;;;;;;;14.76;79.06;102166.06;5034497;28;20180;-71
2023/10/05 09:19:26;;;;;;;6.37;5.67;;;;;;;14.72;79.70;102167.34;5034493;28;20199;-71
2023/10/05 09:24:26;;;;;;;12.13;5.20;;;;;;;14.80;78.74;102169.31;5034659;28;20184;-71
2023/10/05 09:26:57;;;;;;;4.77;3.77;;;;;;;14.84;78.37;102170.72;5034281;28;20183;-71
2023/10/05 09:29:29;;;;;;;7.60;4.63;;;;;;;14.81;78.14;102182.59;5034284;28;20176;-71
2023/10/05 09:31:56;;;;;;;5.17;4.70;;;;;;;14.76;77.59;102179.53;5034181;28;20215;-71
2023/10/05 09:34:55;;;;;;;10.77;6.07;;;;;;;14.82;78.36;102183.47;5034178;28;20238;-71
2023/10/05 09:37:26;;;;;;;5.37;4.97;;;;;;;14.88;78.11;102188.28;5034125;28;20231;-71
2023/10/05 09:39:59;;;;;;;18.20;6.27;;;;;;;14.89;77.92;102181.91;5034299;28;20196;-71
2023/10/05 09:42:26;;;;;;;9.53;4.60;;;;;;;14.86;78.39;102188.41;5033938;28;20684;-71
2023/10/05 09:44:58;;;;;;;10.83;5.43;;;;;;;14.92;78.00;102178.91;5034481;28;20188;-71
2023/10/05 09:47:32;;;;;;;6.30;5.77;;;;;;;15.03;77.37;102184.13;5034195;28;20183;-71
2023/10/05 09:50:00;;;;;;;13.33;5.27;;;;;;;14.98;78.10;102179.19;5034180;28;20176;-71
2023/10/05 09:52:45;;;;;;;9.83;4.20;;;;;;;15.08;77.42;102179.16;5033702;28;20200;-71
2023/10/05 09:55:17;;;;;;;8.53;5.90;;;;;;;15.15;77.93;102191.06;5034114;28;20241;-71
2023/10/05 09:57:56;;;;;;;12.37;7.47;;;;;;;15.12;77.73;102195.88;5034050;28;20186;-71
2023/10/05 10:02:59;;;;;;;10.17;4.23;;;;;;;15.23;76.72;102196.59;5033583;28;20212;-71
2023/10/05 10:05:35;;;;;;;12.47;4.40;;;;;;;15.30;77.67;102199.53;5033989;28;20226;-71
2023/10/05 10:08:30;;;;;;;9.80;3.83;;;;;;;15.41;77.30;102210.97;5034079;28;20266;-72
2023/10/05 10:11:07;;;;;;;11.93;3.60;;;;;;;15.37;76.86;102214.97;5033657;28;20679;-71
2023/10/05 10:13:38;;;;;;;10.80;5.67;;;;;;;15.39;76.85;102207.59;5033956;28;20172;-71
2023/10/05 10:16:21;;;;;;;9.60;5.10;;;;;;;15.43;77.06;102214.38;5033477;28;20632;-71
2023/10/05 10:18:53;;;;;;;11.77;8.20;;;;;;;15.48;76.49;102213.94;5033728;28;20195;-71
2023/10/05 10:21:25;;;;;;;13.63;9.83;;;;;;;15.61;77.17;102206.41;5033253;28;20215;-71
2023/10/05 10:24:20;;;;;;;6.20;4.07;;;;;;;15.59;75.72;102199.44;5033552;28;20184;-71
2023/10/05 10:27:14;;;;;;;5.60;3.63;;;;;;;15.68;75.77;102202.13;5033348;28;20190;-71
2023/10/05 10:29:46;;;;;;;13.50;3.93;;;;;;;15.71;75.00;102198.25;5033833;28;20258;-71
2023/10/05 10:32:21;;;;;;;6.60;3.50;;;;;;;15.66;74.49;102201.41;5033445;28;20274;-71
2023/10/05 10:35:12;;;;;;;4.57;3.57;;;;;;;15.69;74.88;102193.03;5033531;28;20167;-71
2023/10/05 10:37:44;;;;;;;5.23;3.43;;;;;;;15.65;75.02;102197.03;5033729;28;20188;-71
2023/10/05 10:40:25;;;;;;;3.50;2.97;;;;;;;15.73;74.62;102204.38;5033637;28;20282;-71
2023/10/05 10:43:06;;;;;;;6.07;3.90;;;;;;;15.68;73.81;102198.56;5032513;28;20196;-71
2023/10/05 10:45:41;;;;;;;10.20;3.33;;;;;;;15.78;73.94;102194.00;5033736;28;20219;-71
2023/10/05 10:48:13;;;;;;;3.97;3.70;;;;;;;15.89;73.99;102193.78;5033105;28;20172;-71
2023/10/05 10:50:39;;;;;;;5.47;3.80;;;;;;;15.92;73.66;102201.56;5032921;28;20181;-71
2023/10/05 10:53:16;;;;;;;7.33;3.03;;;;;;;15.91;73.56;102198.00;5033017;28;20729;-72
2023/10/05 10:55:51;;;;;;;8.53;3.50;;;;;;;15.99;73.91;102202.69;5033292;28;20180;-72
2023/10/05 10:58:24;;;;;;;11.37;5.87;;;;;;;15.99;73.11;102195.44;5033341;28;20199;-72
2023/10/05 11:00:59;;;;;;;10.47;3.50;;;;;;;16.07;73.30;102197.38;5032911;28;20214;-71
2023/10/05 11:03:30;;;;;;;9.40;4.07;;;;;;;15.91;73.35;102195.31;5033100;28;20249;-71
2023/10/05 11:05:58;;;;;;;5.47;3.37;;;;;;;15.95;73.80;102194.00;5033776;28;20547;-71
2023/10/05 11:08:30;;;;;;;6.90;6.10;;;;;;;15.97;74.08;102193.88;5032894;28;20207;-71
2023/10/05 11:11:09;;;;;;;7.10;4.70;;;;;;;15.93;73.65;102190.63;5032843;28;20222;-71
2023/10/05 11:13:43;;;;;;;12.10;4.90;;;;;;;16.02;73.70;102190.72;5032691;28;20176;-71
2023/10/05 11:16:11;;;;;;;8.57;7.70;;;;;;;16.04;72.70;102184.16;5032862;28;20586;-71
2023/10/05 11:18:59;;;;;;;12.37;8.00;;;;;;;16.06;73.96;102184.88;5033107;28;20202;-71
2023/10/05 11:21:26;;;;;;;18.57;6.50;;;;;;;16.14;72.92;102174.16;5032927;28;20588;-71
2023/10/05 11:23:57;;;;;;;21.67;13.27;;;;;;;16.10;72.88;102178.16;5032744;28;20652;-72
2023/10/05 11:26:56;;;;;;;5.90;4.77;;;;;;;16.09;72.31;102172.91;5032735;28;20177;-71
2023/10/05 11:29:33;;;;;;;7.00;6.40;;;;;;;16.10;72.88;102172.78;5033225;28;20733;-71
2023/10/05 11:32:03;;;;;;;7.43;4.77;;;;;;;16.17;72.45;102168.47;5032682;28;20206;-71
2023/10/05 11:34:55;;;;;;;5.80;4.43;;;;;;;16.14;73.76;102159.81;5032940;28;20625;-71
2023/10/05 11:37:44;;;;;;;8.33;4.17;;;;;;;16.13;72.29;102168.91;5032902;28;20544;-71
2023/10/05 11:40:23;;;;;;;13.20;4.47;;;;;;;16.15;72.88;102165.06;5033156;28;20184;-71
2023/10/05 11:42:50;;;;;;;4.90;4.40;;;;;;;16.28;71.48;102178.19;5033013;28;20207;-71
2023/10/05 11:45:18;;;;;;;5.83;4.13;;;;;;;16.15;71.69;102172.31;5032606;28;20556;-71
2023/10/05 11:47:52;;;;;;;13.03;6.33;;;;;;;16.08;71.64;102176.63;5032584;28;20267;-71
2023/10/05 11:50:24;;;;;;;6.20;5.60;;;;;;;16.21;72.74;102167.16;5032818;28;20176;-71
2023/10/05 11:52:52;;;;;;;6.50;6.03;;;;;;;16.31;72.78;102169.78;5032778;28;20172;-71
2023/10/05 11:55:20;;;;;;;10.37;5.90;;;;;;;16.38;71.66;102162.75;5033931;28;20230;-71
2023/10/05 11:57:47;;;;;;;11.83;4.47;;;;;;;16.51;73.31;102162.41;5035965;28;20682;-71
2023/10/05 12:00:16;;;;;;;6.93;4.57;;;;;;;16.66;72.21;102168.97;5035837;28;20184;-72
2023/10/05 12:02:43;;;;;;;8.83;4.33;;;;;;;16.56;71.62;102162.75;5035694;28;20223;-71
2023/10/05 12:05:11;;;;;;;5.43;5.00;;;;;;;16.59;70.66;102174.13;5035901;28;20331;-72
2023/10/05 12:07:47;;;;;;;12.73;6.10;;;;;;;16.56;70.57;102163.59;5036039;28;20226;-72
2023/10/05 12:10:14;;;;;;;14.40;8.67;;;;;;;16.61;70.72;102168.56;5035862;28;20242;-72
2023/10/05 12:12:41;;;;;;;6.37;4.67;;;;;;;16.60;70.25;102167.72;5035636;28;20207;-71